LETS weather

Torre Picasso Heliport
Madrid, Madrid, Spain

Public forecast

Using degrees Celsius for public forecast. Weather courtesy of forecast.io.

Closest aviation weather report (METAR) to Torre Picasso Heliport

Closest report is Adolfo Suárez Madrid–Barajas Airport, 6.1 nm (11.3 km) ENE. Retrieved 2019/10/17 23:30 UTC (24 minutes ago):

LEMD 172330Z 19005KT 4000 -DZ BR FEW009 BKN018 15/14 Q1019 NOSIG

Closest aviation forecast (TAF) to Torre Picasso Heliport

Closest forecast is Adolfo Suárez Madrid–Barajas Airport, 6.1 nm (11.3 km) ENE. Retrieved 2019/10/17 18:27 UTC (5 hours ago):

TAF LEMD 171700Z 1718/1824 23006KT 9999 OVC020 TX18/1815Z TN13/1804Z TEMPO 1718/1808 BKN014 PROB40 TEMPO 1720/1808 2000 DZ BR BKN006 PROB30 TEMPO 1800/1806 3000 SHRA SCT020TCU PROB30 TEMPO 1812/1818 24015G25KT